sensor_id;sensor_type;location;lat;lon;timestamp;P1;durP1;ratioP1;P2;durP2;ratioP2
70169;SDS011;57543;45.442;9.212;2023-03-01T00:00:31;40.75;;;21.95;;
70169;SDS011;57543;45.442;9.212;2023-03-01T00:03:34;41.37;;;21.07;;
70169;SDS011;57543;45.442;9.212;2023-03-01T00:06:38;39.10;;;21.27;;
70169;SDS011;57543;45.442;9.212;2023-03-01T00:09:42;41.63;;;21.92;;
70169;SDS011;57543;45.442;9.212;2023-03-01T00:12:49;42.30;;;22.05;;
70169;SDS011;57543;45.442;9.212;2023-03-01T00:15:53;40.63;;;21.52;;
70169;SDS011;57543;45.442;9.212;2023-03-01T00:18:56;40.60;;;21.17;;
70169;SDS011;57543;45.442;9.212;2023-03-01T00:22:00;44.20;;;22.50;;
70169;SDS011;57543;45.442;9.212;2023-03-01T00:25:04;40.88;;;21.92;;
70169;SDS011;57543;45.442;9.212;2023-03-01T00:28:08;45.80;;;23.13;;
70169;SDS011;57543;45.442;9.212;2023-03-01T00:31:12;43.17;;;21.83;;
70169;SDS011;57543;45.442;9.212;2023-03-01T00:34:18;42.37;;;22.00;;
70169;SDS011;57543;45.442;9.212;2023-03-01T00:37:22;41.10;;;21.92;;
70169;SDS011;57543;45.442;9.212;2023-03-01T00:40:27;40.05;;;22.00;;
70169;SDS011;57543;45.442;9.212;2023-03-01T00:43:31;45.38;;;22.65;;
70169;SDS011;57543;45.442;9.212;2023-03-01T00:46:39;41.60;;;22.05;;
70169;SDS011;57543;45.442;9.212;2023-03-01T00:49:42;43.20;;;22.17;;
70169;SDS011;57543;45.442;9.212;2023-03-01T00:52:46;41.40;;;21.75;;
70169;SDS011;57543;45.442;9.212;2023-03-01T00:55:50;42.97;;;22.52;;
70169;SDS011;57543;45.442;9.212;2023-03-01T00:58:53;41.35;;;21.55;;
70169;SDS011;57543;45.442;9.212;2023-03-01T01:01:57;44.13;;;22.80;;
70169;SDS011;57543;45.442;9.212;2023-03-01T01:05:02;46.17;;;22.87;;
70169;SDS011;57543;45.442;9.212;2023-03-01T01:08:07;43.38;;;22.85;;
70169;SDS011;57543;45.442;9.212;2023-03-01T01:11:13;41.42;;;22.00;;
70169;SDS011;57543;45.442;9.212;2023-03-01T01:14:18;45.22;;;22.30;;
70169;SDS011;57543;45.442;9.212;2023-03-01T01:17:21;41.63;;;21.58;;
70169;SDS011;57543;45.442;9.212;2023-03-01T01:20:25;37.73;;;21.50;;
70169;SDS011;57543;45.442;9.212;2023-03-01T01:23:29;39.00;;;21.10;;
70169;SDS011;57543;45.442;9.212;2023-03-01T01:26:33;41.75;;;21.58;;
70169;SDS011;57543;45.442;9.212;2023-03-01T01:29:37;37.35;;;21.10;;
70169;SDS011;57543;45.442;9.212;2023-03-01T01:32:41;42.50;;;22.48;;
70169;SDS011;57543;45.442;9.212;2023-03-01T01:35:45;40.37;;;21.77;;
70169;SDS011;57543;45.442;9.212;2023-03-01T01:38:49;42.90;;;21.65;;
70169;SDS011;57543;45.442;9.212;2023-03-01T01:41:52;41.38;;;22.05;;
70169;SDS011;57543;45.442;9.212;2023-03-01T01:48:43;40.78;;;21.92;;
70169;SDS011;57543;45.442;9.212;2023-03-01T01:51:51;39.90;;;21.17;;
70169;SDS011;57543;45.442;9.212;2023-03-01T01:55:16;42.40;;;21.88;;
70169;SDS011;57543;45.442;9.212;2023-03-01T01:58:25;40.67;;;20.80;;
70169;SDS011;57543;45.442;9.212;2023-03-01T02:01:32;42.97;;;22.08;;
70169;SDS011;57543;45.442;9.212;2023-03-01T02:04:36;39.42;;;21.90;;
70169;SDS011;57543;45.442;9.212;2023-03-01T02:07:40;43.07;;;21.40;;
70169;SDS011;57543;45.442;9.212;2023-03-01T02:10:45;39.83;;;21.67;;
70169;SDS011;57543;45.442;9.212;2023-03-01T02:13:51;44.17;;;21.80;;
70169;SDS011;57543;45.442;9.212;2023-03-01T02:16:56;44.60;;;20.98;;
70169;SDS011;57543;45.442;9.212;2023-03-01T02:20:22;41.10;;;21.17;;
70169;SDS011;57543;45.442;9.212;2023-03-01T02:23:30;41.47;;;20.97;;
70169;SDS011;57543;45.442;9.212;2023-03-01T02:29:42;39.55;;;21.00;;
70169;SDS011;57543;45.442;9.212;2023-03-01T02:32:47;42.05;;;22.02;;
70169;SDS011;57543;45.442;9.212;2023-03-01T02:35:52;41.08;;;21.50;;
70169;SDS011;57543;45.442;9.212;2023-03-01T02:38:58;41.23;;;21.53;;
70169;SDS011;57543;45.442;9.212;2023-03-01T02:42:05;40.38;;;21.75;;
70169;SDS011;57543;45.442;9.212;2023-03-01T02:45:09;40.20;;;20.58;;
70169;SDS011;57543;45.442;9.212;2023-03-01T02:48:13;43.75;;;22.23;;
70169;SDS011;57543;45.442;9.212;2023-03-01T02:51:41;41.83;;;21.00;;
70169;SDS011;57543;45.442;9.212;2023-03-01T02:54:55;38.43;;;20.67;;
70169;SDS011;57543;45.442;9.212;2023-03-01T02:58:02;41.33;;;20.70;;
70169;SDS011;57543;45.442;9.212;2023-03-01T03:01:07;41.42;;;20.77;;
70169;SDS011;57543;45.442;9.212;2023-03-01T03:04:14;41.47;;;20.98;;
70169;SDS011;57543;45.442;9.212;2023-03-01T03:07:22;38.25;;;20.63;;
70169;SDS011;57543;45.442;9.212;2023-03-01T03:10:27;40.40;;;20.90;;
70169;SDS011;57543;45.442;9.212;2023-03-01T03:13:33;41.67;;;20.40;;
70169;SDS011;57543;45.442;9.212;2023-03-01T03:16:37;38.35;;;20.98;;
70169;SDS011;57543;45.442;9.212;2023-03-01T03:19:42;42.13;;;21.08;;
70169;SDS011;57543;45.442;9.212;2023-03-01T03:22:49;42.42;;;21.80;;
70169;SDS011;57543;45.442;9.212;2023-03-01T03:25:54;41.00;;;20.97;;
70169;SDS011;57543;45.442;9.212;2023-03-01T03:28:58;43.80;;;22.27;;
70169;SDS011;57543;45.442;9.212;2023-03-01T03:32:02;43.63;;;22.17;;
70169;SDS011;57543;45.442;9.212;2023-03-01T03:35:06;45.33;;;21.60;;
70169;SDS011;57543;45.442;9.212;2023-03-01T03:38:15;36.08;;;20.25;;
70169;SDS011;57543;45.442;9.212;2023-03-01T03:41:22;41.73;;;21.80;;
70169;SDS011;57543;45.442;9.212;2023-03-01T03:44:26;41.38;;;21.15;;
70169;SDS011;57543;45.442;9.212;2023-03-01T03:47:32;41.50;;;20.17;;
70169;SDS011;57543;45.442;9.212;2023-03-01T03:50:36;39.08;;;19.55;;
70169;SDS011;57543;45.442;9.212;2023-03-01T03:53:41;40.55;;;20.95;;
70169;SDS011;57543;45.442;9.212;2023-03-01T03:56:46;39.37;;;20.53;;
70169;SDS011;57543;45.442;9.212;2023-03-01T03:59:49;39.00;;;20.77;;
70169;SDS011;57543;45.442;9.212;2023-03-01T04:02:53;39.10;;;20.30;;
70169;SDS011;57543;45.442;9.212;2023-03-01T04:06:01;39.92;;;20.60;;
70169;SDS011;57543;45.442;9.212;2023-03-01T04:09:06;40.55;;;20.33;;
70169;SDS011;57543;45.442;9.212;2023-03-01T04:12:10;38.17;;;19.93;;
70169;SDS011;57543;45.442;9.212;2023-03-01T04:15:13;39.08;;;19.98;;
70169;SDS011;57543;45.442;9.212;2023-03-01T04:18:17;38.58;;;19.13;;
70169;SDS011;57543;45.442;9.212;2023-03-01T04:21:22;37.20;;;19.55;;
70169;SDS011;57543;45.442;9.212;2023-03-01T04:24:26;34.65;;;18.52;;
70169;SDS011;57543;45.442;9.212;2023-03-01T04:27:29;36.47;;;18.33;;
70169;SDS011;57543;45.442;9.212;2023-03-01T04:30:33;36.03;;;18.73;;
70169;SDS011;57543;45.442;9.212;2023-03-01T04:33:39;37.58;;;19.02;;
70169;SDS011;57543;45.442;9.212;2023-03-01T04:36:48;37.90;;;19.20;;
70169;SDS011;57543;45.442;9.212;2023-03-01T04:39:51;36.70;;;18.13;;
70169;SDS011;57543;45.442;9.212;2023-03-01T04:42:55;40.17;;;19.10;;
70169;SDS011;57543;45.442;9.212;2023-03-01T04:46:10;41.72;;;19.42;;
70169;SDS011;57543;45.442;9.212;2023-03-01T04:49:15;36.75;;;18.33;;
70169;SDS011;57543;45.442;9.212;2023-03-01T04:52:19;36.22;;;18.92;;
70169;SDS011;57543;45.442;9.212;2023-03-01T04:55:22;34.40;;;17.17;;
70169;SDS011;57543;45.442;9.212;2023-03-01T04:58:28;36.23;;;17.80;;
70169;SDS011;57543;45.442;9.212;2023-03-01T05:01:32;36.20;;;18.38;;
70169;SDS011;57543;45.442;9.212;2023-03-01T05:04:35;35.83;;;17.27;;
70169;SDS011;57543;45.442;9.212;2023-03-01T05:07:39;41.83;;;17.85;;
70169;SDS011;57543;45.442;9.212;2023-03-01T05:10:46;25.95;;;13.80;;
70169;SDS011;57543;45.442;9.212;2023-03-01T05:13:53;27.63;;;12.93;;
70169;SDS011;57543;45.442;9.212;2023-03-01T05:16:57;24.15;;;12.45;;
70169;SDS011;57543;45.442;9.212;2023-03-01T05:20:07;29.40;;;14.32;;
70169;SDS011;57543;45.442;9.212;2023-03-01T05:23:12;29.35;;;14.38;;
70169;SDS011;57543;45.442;9.212;2023-03-01T05:26:16;25.70;;;12.88;;
70169;SDS011;57543;45.442;9.212;2023-03-01T05:29:21;26.20;;;12.17;;
70169;SDS011;57543;45.442;9.212;2023-03-01T05:32:28;22.45;;;11.90;;
70169;SDS011;57543;45.442;9.212;2023-03-01T05:35:35;25.92;;;12.35;;
70169;SDS011;57543;45.442;9.212;2023-03-01T05:38:39;23.90;;;12.02;;
70169;SDS011;57543;45.442;9.212;2023-03-01T05:41:45;24.27;;;12.30;;
70169;SDS011;57543;45.442;9.212;2023-03-01T05:44:48;26.07;;;12.97;;
70169;SDS011;57543;45.442;9.212;2023-03-01T05:47:51;24.48;;;13.20;;
70169;SDS011;57543;45.442;9.212;2023-03-01T05:50:58;24.75;;;12.27;;
70169;SDS011;57543;45.442;9.212;2023-03-01T05:54:03;25.05;;;12.05;;
70169;SDS011;57543;45.442;9.212;2023-03-01T05:57:09;25.83;;;12.50;;
70169;SDS011;57543;45.442;9.212;2023-03-01T06:00:14;24.00;;;12.43;;
70169;SDS011;57543;45.442;9.212;2023-03-01T06:03:19;22.73;;;11.60;;
70169;SDS011;57543;45.442;9.212;2023-03-01T06:06:22;24.58;;;12.40;;
70169;SDS011;57543;45.442;9.212;2023-03-01T06:09:27;21.70;;;11.15;;
70169;SDS011;57543;45.442;9.212;2023-03-01T06:12:32;25.33;;;11.80;;
70169;SDS011;57543;45.442;9.212;2023-03-01T06:15:36;23.37;;;11.67;;
70169;SDS011;57543;45.442;9.212;2023-03-01T06:18:40;23.73;;;11.38;;
70169;SDS011;57543;45.442;9.212;2023-03-01T06:21:44;23.85;;;11.57;;
70169;SDS011;57543;45.442;9.212;2023-03-01T06:24:48;26.15;;;10.73;;
70169;SDS011;57543;45.442;9.212;2023-03-01T06:27:52;24.08;;;11.07;;
70169;SDS011;57543;45.442;9.212;2023-03-01T06:30:57;22.13;;;10.57;;
70169;SDS011;57543;45.442;9.212;2023-03-01T06:34:00;21.27;;;10.57;;
70169;SDS011;57543;45.442;9.212;2023-03-01T06:37:04;24.08;;;11.23;;
70169;SDS011;57543;45.442;9.212;2023-03-01T06:40:08;22.67;;;11.23;;
70169;SDS011;57543;45.442;9.212;2023-03-01T06:43:14;25.23;;;11.65;;
70169;SDS011;57543;45.442;9.212;2023-03-01T06:46:18;22.80;;;10.73;;
70169;SDS011;57543;45.442;9.212;2023-03-01T06:49:21;24.98;;;11.30;;
70169;SDS011;57543;45.442;9.212;2023-03-01T06:52:25;26.90;;;11.88;;
70169;SDS011;57543;45.442;9.212;2023-03-01T06:55:29;24.75;;;12.80;;
70169;SDS011;57543;45.442;9.212;2023-03-01T06:58:33;23.00;;;11.60;;
70169;SDS011;57543;45.442;9.212;2023-03-01T07:01:37;23.40;;;12.20;;
70169;SDS011;57543;45.442;9.212;2023-03-01T07:04:42;20.30;;;10.73;;
70169;SDS011;57543;45.442;9.212;2023-03-01T07:07:46;23.83;;;11.73;;
70169;SDS011;57543;45.442;9.212;2023-03-01T07:10:54;24.38;;;11.27;;
70169;SDS011;57543;45.442;9.212;2023-03-01T07:14:01;24.10;;;11.50;;
70169;SDS011;57543;45.442;9.212;2023-03-01T07:17:05;28.83;;;12.07;;
70169;SDS011;57543;45.442;9.212;2023-03-01T07:20:08;21.73;;;11.73;;
70169;SDS011;57543;45.442;9.212;2023-03-01T07:23:12;26.10;;;11.55;;
70169;SDS011;57543;45.442;9.212;2023-03-01T07:26:16;26.20;;;11.88;;
70169;SDS011;57543;45.442;9.212;2023-03-01T07:29:20;21.42;;;11.23;;
70169;SDS011;57543;45.442;9.212;2023-03-01T07:32:23;20.60;;;10.33;;
70169;SDS011;57543;45.442;9.212;2023-03-01T07:35:27;23.95;;;11.57;;
70169;SDS011;57543;45.442;9.212;2023-03-01T07:38:30;20.48;;;10.77;;
70169;SDS011;57543;45.442;9.212;2023-03-01T07:41:35;23.27;;;10.40;;
70169;SDS011;57543;45.442;9.212;2023-03-01T07:44:39;22.88;;;11.38;;
70169;SDS011;57543;45.442;9.212;2023-03-01T07:47:42;21.40;;;10.43;;
70169;SDS011;57543;45.442;9.212;2023-03-01T07:50:45;20.70;;;10.82;;
70169;SDS011;57543;45.442;9.212;2023-03-01T07:53:48;23.33;;;11.48;;
70169;SDS011;57543;45.442;9.212;2023-03-01T07:56:52;20.00;;;10.52;;
70169;SDS011;57543;45.442;9.212;2023-03-01T07:59:57;21.95;;;10.30;;
70169;SDS011;57543;45.442;9.212;2023-03-01T08:03:01;19.80;;;9.83;;
70169;SDS011;57543;45.442;9.212;2023-03-01T08:06:06;20.90;;;9.65;;
70169;SDS011;57543;45.442;9.212;2023-03-01T08:09:11;19.95;;;9.82;;
70169;SDS011;57543;45.442;9.212;2023-03-01T08:12:15;20.35;;;10.35;;
70169;SDS011;57543;45.442;9.212;2023-03-01T08:15:22;18.67;;;10.23;;
70169;SDS011;57543;45.442;9.212;2023-03-01T08:18:26;20.93;;;10.57;;
70169;SDS011;57543;45.442;9.212;2023-03-01T08:21:29;18.10;;;9.38;;
70169;SDS011;57543;45.442;9.212;2023-03-01T08:24:33;21.13;;;10.05;;
70169;SDS011;57543;45.442;9.212;2023-03-01T08:27:37;20.33;;;9.50;;
70169;SDS011;57543;45.442;9.212;2023-03-01T08:30:41;19.45;;;10.52;;
70169;SDS011;57543;45.442;9.212;2023-03-01T08:33:45;21.53;;;10.53;;
70169;SDS011;57543;45.442;9.212;2023-03-01T08:36:54;22.63;;;10.52;;
70169;SDS011;57543;45.442;9.212;2023-03-01T08:39:59;21.40;;;9.82;;
70169;SDS011;57543;45.442;9.212;2023-03-01T08:43:03;20.08;;;10.15;;
70169;SDS011;57543;45.442;9.212;2023-03-01T08:46:07;23.27;;;11.40;;
70169;SDS011;57543;45.442;9.212;2023-03-01T08:49:11;22.80;;;11.07;;
70169;SDS011;57543;45.442;9.212;2023-03-01T08:52:19;23.38;;;10.77;;
70169;SDS011;57543;45.442;9.212;2023-03-01T08:55:23;27.42;;;10.82;;
70169;SDS011;57543;45.442;9.212;2023-03-01T08:58:27;22.77;;;11.13;;
70169;SDS011;57543;45.442;9.212;2023-03-01T09:01:31;22.95;;;10.95;;
70169;SDS011;57543;45.442;9.212;2023-03-01T09:04:34;23.17;;;11.03;;
70169;SDS011;57543;45.442;9.212;2023-03-01T09:07:38;27.63;;;11.55;;
70169;SDS011;57543;45.442;9.212;2023-03-01T09:10:45;23.48;;;11.27;;
70169;SDS011;57543;45.442;9.212;2023-03-01T09:13:52;22.20;;;11.27;;
70169;SDS011;57543;45.442;9.212;2023-03-01T09:16:56;24.30;;;11.20;;
70169;SDS011;57543;45.442;9.212;2023-03-01T09:20:00;24.50;;;12.43;;
70169;SDS011;57543;45.442;9.212;2023-03-01T09:23:03;34.55;;;17.30;;
70169;SDS011;57543;45.442;9.212;2023-03-01T09:26:07;31.15;;;16.42;;
70169;SDS011;57543;45.442;9.212;2023-03-01T09:29:12;40.55;;;18.00;;
70169;SDS011;57543;45.442;9.212;2023-03-01T09:32:17;35.90;;;17.88;;
70169;SDS011;57543;45.442;9.212;2023-03-01T09:35:21;40.40;;;19.47;;
70169;SDS011;57543;45.442;9.212;2023-03-01T09:38:25;33.28;;;17.33;;
70169;SDS011;57543;45.442;9.212;2023-03-01T09:41:38;35.75;;;17.83;;
70169;SDS011;57543;45.442;9.212;2023-03-01T09:44:56;30.83;;;16.80;;
70169;SDS011;57543;45.442;9.212;2023-03-01T09:48:04;33.70;;;17.60;;
70169;SDS011;57543;45.442;9.212;2023-03-01T09:51:17;36.57;;;18.90;;
70169;SDS011;57543;45.442;9.212;2023-03-01T09:54:23;34.95;;;17.90;;
70169;SDS011;57543;45.442;9.212;2023-03-01T10:00:41;29.80;;;15.35;;
70169;SDS011;57543;45.442;9.212;2023-03-01T10:04:01;29.88;;;14.45;;
70169;SDS011;57543;45.442;9.212;2023-03-01T10:07:21;28.17;;;14.13;;
70169;SDS011;57543;45.442;9.212;2023-03-01T10:10:36;29.02;;;15.00;;
70169;SDS011;57543;45.442;9.212;2023-03-01T10:13:45;28.40;;;13.90;;
70169;SDS011;57543;45.442;9.212;2023-03-01T10:17:12;28.52;;;14.10;;
70169;SDS011;57543;45.442;9.212;2023-03-01T10:23:59;28.60;;;13.97;;
70169;SDS011;57543;45.442;9.212;2023-03-01T10:27:29;27.58;;;13.40;;
70169;SDS011;57543;45.442;9.212;2023-03-01T10:30:52;26.73;;;14.30;;
70169;SDS011;57543;45.442;9.212;2023-03-01T10:33:56;26.35;;;13.52;;
70169;SDS011;57543;45.442;9.212;2023-03-01T10:37:11;30.15;;;14.90;;
70169;SDS011;57543;45.442;9.212;2023-03-01T10:40:16;29.10;;;14.23;;
70169;SDS011;57543;45.442;9.212;2023-03-01T10:43:22;30.88;;;14.50;;
70169;SDS011;57543;45.442;9.212;2023-03-01T10:46:32;32.85;;;14.85;;
70169;SDS011;57543;45.442;9.212;2023-03-01T10:49:37;30.42;;;14.18;;
70169;SDS011;57543;45.442;9.212;2023-03-01T10:52:41;28.13;;;14.35;;
70169;SDS011;57543;45.442;9.212;2023-03-01T10:55:46;28.87;;;14.10;;
70169;SDS011;57543;45.442;9.212;2023-03-01T11:05:36;30.90;;;13.50;;
70169;SDS011;57543;45.442;9.212;2023-03-01T11:08:41;24.10;;;12.77;;
70169;SDS011;57543;45.442;9.212;2023-03-01T11:11:55;27.57;;;13.23;;
70169;SDS011;57543;45.442;9.212;2023-03-01T11:15:03;25.85;;;13.35;;
70169;SDS011;57543;45.442;9.212;2023-03-01T11:18:18;25.45;;;12.52;;
70169;SDS011;57543;45.442;9.212;2023-03-01T11:21:24;27.90;;;12.93;;
70169;SDS011;57543;45.442;9.212;2023-03-01T11:24:34;27.63;;;13.18;;
70169;SDS011;57543;45.442;9.212;2023-03-01T11:27:43;28.20;;;13.23;;
70169;SDS011;57543;45.442;9.212;2023-03-01T11:34:36;28.95;;;13.82;;
70169;SDS011;57543;45.442;9.212;2023-03-01T11:37:53;26.95;;;14.10;;
70169;SDS011;57543;45.442;9.212;2023-03-01T11:41:06;26.90;;;14.02;;
70169;SDS011;57543;45.442;9.212;2023-03-01T11:44:20;33.13;;;14.07;;
70169;SDS011;57543;45.442;9.212;2023-03-01T11:50:58;30.63;;;14.88;;
70169;SDS011;57543;45.442;9.212;2023-03-01T12:07:42;27.92;;;14.25;;
70169;SDS011;57543;45.442;9.212;2023-03-01T12:21:06;28.08;;;14.60;;
70169;SDS011;57543;45.442;9.212;2023-03-01T12:24:21;27.85;;;14.75;;
70169;SDS011;57543;45.442;9.212;2023-03-01T12:27:38;29.25;;;14.93;;
70169;SDS011;57543;45.442;9.212;2023-03-01T12:30:55;28.50;;;14.23;;
70169;SDS011;57543;45.442;9.212;2023-03-01T12:37:54;30.38;;;14.38;;
70169;SDS011;57543;45.442;9.212;2023-03-01T12:44:15;29.05;;;14.27;;
70169;SDS011;57543;45.442;9.212;2023-03-01T12:48:19;29.25;;;14.95;;
70169;SDS011;57543;45.442;9.212;2023-03-01T12:51:14;29.77;;;14.43;;
70169;SDS011;57543;45.442;9.212;2023-03-01T12:54:41;29.10;;;13.88;;
70169;SDS011;57543;45.442;9.212;2023-03-01T12:57:54;32.60;;;14.50;;
70169;SDS011;57543;45.442;9.212;2023-03-01T13:01:07;28.83;;;13.68;;
70169;SDS011;57543;45.442;9.212;2023-03-01T13:04:29;27.70;;;13.75;;
70169;SDS011;57543;45.442;9.212;2023-03-01T13:07:44;28.27;;;14.07;;
70169;SDS011;57543;45.442;9.212;2023-03-01T13:11:04;30.45;;;13.82;;
70169;SDS011;57543;45.442;9.212;2023-03-01T13:17:33;27.85;;;13.88;;
70169;SDS011;57543;45.442;9.212;2023-03-01T13:21:18;29.83;;;14.90;;
70169;SDS011;57543;45.442;9.212;2023-03-01T13:27:45;30.42;;;15.55;;
70169;SDS011;57543;45.442;9.212;2023-03-01T13:30:49;29.80;;;14.73;;
70169;SDS011;57543;45.442;9.212;2023-03-01T13:33:56;33.42;;;16.98;;
70169;SDS011;57543;45.442;9.212;2023-03-01T13:37:18;33.53;;;16.05;;
70169;SDS011;57543;45.442;9.212;2023-03-01T13:43:28;30.80;;;15.43;;
70169;SDS011;57543;45.442;9.212;2023-03-01T13:46:33;31.52;;;15.68;;
70169;SDS011;57543;45.442;9.212;2023-03-01T13:49:42;31.55;;;15.85;;
70169;SDS011;57543;45.442;9.212;2023-03-01T13:56:12;31.83;;;15.77;;
70169;SDS011;57543;45.442;9.212;2023-03-01T13:59:21;32.92;;;16.30;;
70169;SDS011;57543;45.442;9.212;2023-03-01T14:02:25;33.63;;;16.17;;
70169;SDS011;57543;45.442;9.212;2023-03-01T14:05:30;29.55;;;15.02;;
70169;SDS011;57543;45.442;9.212;2023-03-01T14:08:35;31.55;;;15.80;;
70169;SDS011;57543;45.442;9.212;2023-03-01T14:12:02;31.27;;;15.50;;
70169;SDS011;57543;45.442;9.212;2023-03-01T14:18:43;34.30;;;15.52;;
70169;SDS011;57543;45.442;9.212;2023-03-01T14:28:32;33.33;;;14.93;;
70169;SDS011;57543;45.442;9.212;2023-03-01T14:31:40;32.47;;;15.65;;
70169;SDS011;57543;45.442;9.212;2023-03-01T14:34:46;30.60;;;14.93;;
70169;SDS011;57543;45.442;9.212;2023-03-01T14:37:51;28.33;;;14.27;;
70169;SDS011;57543;45.442;9.212;2023-03-01T14:40:56;31.08;;;15.98;;
70169;SDS011;57543;45.442;9.212;2023-03-01T14:44:05;31.00;;;15.30;;
70169;SDS011;57543;45.442;9.212;2023-03-01T14:47:14;31.75;;;15.40;;
70169;SDS011;57543;45.442;9.212;2023-03-01T14:50:25;31.83;;;16.02;;
70169;SDS011;57543;45.442;9.212;2023-03-01T14:53:33;31.70;;;15.50;;
70169;SDS011;57543;45.442;9.212;2023-03-01T14:56:44;29.83;;;15.23;;
70169;SDS011;57543;45.442;9.212;2023-03-01T14:59:50;29.73;;;14.80;;
70169;SDS011;57543;45.442;9.212;2023-03-01T15:03:00;31.27;;;15.73;;
70169;SDS011;57543;45.442;9.212;2023-03-01T15:06:17;35.03;;;16.08;;
70169;SDS011;57543;45.442;9.212;2023-03-01T15:09:22;30.70;;;15.82;;
70169;SDS011;57543;45.442;9.212;2023-03-01T15:15:45;32.37;;;15.20;;
70169;SDS011;57543;45.442;9.212;2023-03-01T15:18:54;36.15;;;17.95;;
70169;SDS011;57543;45.442;9.212;2023-03-01T15:22:14;40.40;;;19.73;;
70169;SDS011;57543;45.442;9.212;2023-03-01T15:25:20;63.97;;;28.75;;
70169;SDS011;57543;45.442;9.212;2023-03-01T15:28:27;51.70;;;22.85;;
70169;SDS011;57543;45.442;9.212;2023-03-01T15:31:35;44.20;;;21.70;;
70169;SDS011;57543;45.442;9.212;2023-03-01T15:34:42;31.77;;;16.58;;
70169;SDS011;57543;45.442;9.212;2023-03-01T15:37:47;31.60;;;15.63;;
70169;SDS011;57543;45.442;9.212;2023-03-01T15:40:52;30.02;;;14.38;;
70169;SDS011;57543;45.442;9.212;2023-03-01T15:43:56;37.30;;;16.08;;
70169;SDS011;57543;45.442;9.212;2023-03-01T15:50:43;33.05;;;14.88;;
70169;SDS011;57543;45.442;9.212;2023-03-01T15:53:50;32.63;;;15.80;;
70169;SDS011;57543;45.442;9.212;2023-03-01T15:56:56;30.00;;;15.15;;
70169;SDS011;57543;45.442;9.212;2023-03-01T15:59:59;31.08;;;15.10;;
70169;SDS011;57543;45.442;9.212;2023-03-01T16:03:14;33.70;;;16.03;;
70169;SDS011;57543;45.442;9.212;2023-03-01T16:06:24;32.65;;;13.98;;
70169;SDS011;57543;45.442;9.212;2023-03-01T16:09:28;33.03;;;15.50;;
70169;SDS011;57543;45.442;9.212;2023-03-01T16:12:31;32.83;;;14.63;;
70169;SDS011;57543;45.442;9.212;2023-03-01T16:15:35;29.27;;;14.77;;
70169;SDS011;57543;45.442;9.212;2023-03-01T16:18:39;30.50;;;14.53;;
70169;SDS011;57543;45.442;9.212;2023-03-01T16:21:43;29.02;;;14.25;;
70169;SDS011;57543;45.442;9.212;2023-03-01T16:24:50;28.92;;;14.45;;
70169;SDS011;57543;45.442;9.212;2023-03-01T16:27:53;28.70;;;14.13;;
70169;SDS011;57543;45.442;9.212;2023-03-01T16:30:58;33.33;;;15.57;;
70169;SDS011;57543;45.442;9.212;2023-03-01T16:34:04;31.10;;;15.43;;
70169;SDS011;57543;45.442;9.212;2023-03-01T16:37:10;29.30;;;15.02;;
70169;SDS011;57543;45.442;9.212;2023-03-01T16:40:21;31.67;;;15.20;;
70169;SDS011;57543;45.442;9.212;2023-03-01T16:43:27;28.60;;;14.25;;
70169;SDS011;57543;45.442;9.212;2023-03-01T16:46:32;32.45;;;14.25;;
70169;SDS011;57543;45.442;9.212;2023-03-01T16:49:35;29.00;;;13.47;;
70169;SDS011;57543;45.442;9.212;2023-03-01T16:52:39;25.80;;;13.52;;
70169;SDS011;57543;45.442;9.212;2023-03-01T16:55:52;28.73;;;14.20;;
70169;SDS011;57543;45.442;9.212;2023-03-01T16:58:56;30.92;;;14.50;;
70169;SDS011;57543;45.442;9.212;2023-03-01T17:01:59;31.58;;;15.55;;
70169;SDS011;57543;45.442;9.212;2023-03-01T17:05:04;33.47;;;15.50;;
70169;SDS011;57543;45.442;9.212;2023-03-01T17:08:08;30.27;;;14.05;;
70169;SDS011;57543;45.442;9.212;2023-03-01T17:11:16;30.05;;;14.55;;
70169;SDS011;57543;45.442;9.212;2023-03-01T17:14:21;29.63;;;15.13;;
70169;SDS011;57543;45.442;9.212;2023-03-01T17:17:25;33.45;;;15.57;;
70169;SDS011;57543;45.442;9.212;2023-03-01T17:20:29;31.93;;;15.10;;
70169;SDS011;57543;45.442;9.212;2023-03-01T17:23:33;31.00;;;15.73;;
70169;SDS011;57543;45.442;9.212;2023-03-01T17:26:38;31.17;;;15.18;;
70169;SDS011;57543;45.442;9.212;2023-03-01T17:29:42;31.85;;;16.00;;
70169;SDS011;57543;45.442;9.212;2023-03-01T17:32:46;31.77;;;16.08;;
70169;SDS011;57543;45.442;9.212;2023-03-01T17:35:49;35.47;;;16.73;;
70169;SDS011;57543;45.442;9.212;2023-03-01T17:38:53;31.38;;;16.25;;
70169;SDS011;57543;45.442;9.212;2023-03-01T17:41:57;36.00;;;17.42;;
70169;SDS011;57543;45.442;9.212;2023-03-01T17:45:00;33.55;;;16.15;;
70169;SDS011;57543;45.442;9.212;2023-03-01T17:48:05;31.60;;;15.70;;
70169;SDS011;57543;45.442;9.212;2023-03-01T17:51:10;34.90;;;15.70;;
70169;SDS011;57543;45.442;9.212;2023-03-01T17:54:15;35.53;;;15.85;;
70169;SDS011;57543;45.442;9.212;2023-03-01T17:57:18;30.48;;;15.20;;
70169;SDS011;57543;45.442;9.212;2023-03-01T18:00:22;33.47;;;15.32;;
70169;SDS011;57543;45.442;9.212;2023-03-01T18:03:28;31.13;;;14.77;;
70169;SDS011;57543;45.442;9.212;2023-03-01T18:06:34;31.43;;;15.87;;
70169;SDS011;57543;45.442;9.212;2023-03-01T18:09:38;37.83;;;17.08;;
70169;SDS011;57543;45.442;9.212;2023-03-01T18:12:42;34.85;;;15.60;;
70169;SDS011;57543;45.442;9.212;2023-03-01T18:15:45;35.83;;;16.52;;
70169;SDS011;57543;45.442;9.212;2023-03-01T18:18:52;36.95;;;16.40;;
70169;SDS011;57543;45.442;9.212;2023-03-01T18:21:57;34.93;;;17.87;;
70169;SDS011;57543;45.442;9.212;2023-03-01T18:25:00;33.58;;;17.73;;
70169;SDS011;57543;45.442;9.212;2023-03-01T18:28:04;42.65;;;20.45;;
70169;SDS011;57543;45.442;9.212;2023-03-01T18:31:09;40.35;;;18.73;;
70169;SDS011;57543;45.442;9.212;2023-03-01T18:34:13;37.40;;;17.85;;
70169;SDS011;57543;45.442;9.212;2023-03-01T18:37:16;36.13;;;16.47;;
70169;SDS011;57543;45.442;9.212;2023-03-01T18:40:20;31.40;;;16.02;;
70169;SDS011;57543;45.442;9.212;2023-03-01T18:43:24;29.52;;;14.45;;
70169;SDS011;57543;45.442;9.212;2023-03-01T18:46:31;30.77;;;15.73;;
70169;SDS011;57543;45.442;9.212;2023-03-01T18:49:35;30.33;;;14.98;;
70169;SDS011;57543;45.442;9.212;2023-03-01T18:52:39;31.33;;;16.40;;
70169;SDS011;57543;45.442;9.212;2023-03-01T18:55:43;28.13;;;15.23;;
70169;SDS011;57543;45.442;9.212;2023-03-01T18:58:47;32.67;;;16.20;;
70169;SDS011;57543;45.442;9.212;2023-03-01T19:01:51;30.15;;;15.93;;
70169;SDS011;57543;45.442;9.212;2023-03-01T19:04:57;29.35;;;15.65;;
70169;SDS011;57543;45.442;9.212;2023-03-01T19:08:01;33.63;;;15.40;;
70169;SDS011;57543;45.442;9.212;2023-03-01T19:11:04;29.40;;;15.32;;
70169;SDS011;57543;45.442;9.212;2023-03-01T19:14:08;29.35;;;15.38;;
70169;SDS011;57543;45.442;9.212;2023-03-01T19:17:12;30.10;;;15.85;;
70169;SDS011;57543;45.442;9.212;2023-03-01T19:20:16;28.85;;;15.20;;
70169;SDS011;57543;45.442;9.212;2023-03-01T19:23:22;31.97;;;15.30;;
70169;SDS011;57543;45.442;9.212;2023-03-01T19:26:26;28.33;;;14.80;;
70169;SDS011;57543;45.442;9.212;2023-03-01T19:29:30;29.40;;;15.50;;
70169;SDS011;57543;45.442;9.212;2023-03-01T19:32:34;30.90;;;15.43;;
70169;SDS011;57543;45.442;9.212;2023-03-01T19:35:37;27.50;;;14.98;;
70169;SDS011;57543;45.442;9.212;2023-03-01T19:38:41;29.43;;;14.83;;